createdAt,value
2019-05-26T00:00:00.984Z,8.65
2019-05-26T00:01:35.273Z,14.05
2019-05-26T00:03:10.133Z,10.38
2019-05-26T00:04:44.468Z,10.48
2019-05-26T00:06:19.278Z,10.55
2019-05-26T00:07:53.488Z,10.43
2019-05-26T00:09:28.336Z,11.10
2019-05-26T00:11:02.957Z,9.45
2019-05-26T00:12:37.744Z,11.78
2019-05-26T00:14:11.952Z,13.65
2019-05-26T00:15:46.783Z,9.78
2019-05-26T00:17:21.231Z,10.85
2019-05-26T00:18:56.033Z,11.08
2019-05-26T00:20:30.432Z,11.48
2019-05-26T00:22:05.340Z,8.68
2019-05-26T00:23:39.908Z,10.32
2019-05-26T00:25:14.872Z,12.95
2019-05-26T00:26:49.121Z,11.30
2019-05-26T00:28:23.896Z,9.00
2019-05-26T00:29:58.690Z,11.48
2019-05-26T00:31:33.562Z,11.20
2019-05-26T00:33:07.821Z,9.08
2019-05-26T00:34:42.636Z,9.43
2019-05-26T00:36:17.047Z,9.83
2019-05-26T00:37:51.823Z,8.55
2019-05-26T00:39:26.072Z,10.82
2019-05-26T00:41:00.944Z,11.30
2019-05-26T00:42:35.730Z,12.03
2019-05-26T00:44:10.564Z,11.05
2019-05-26T00:45:44.872Z,11.88
2019-05-26T00:47:19.669Z,12.15
2019-05-26T00:48:54.103Z,9.35
2019-05-26T00:50:28.989Z,9.38
2019-05-26T00:52:03.208Z,10.82
2019-05-26T00:53:37.996Z,14.03
2019-05-26T00:55:12.729Z,12.60
2019-05-26T00:56:47.565Z,15.63
2019-05-26T00:58:21.778Z,14.18
2019-05-26T00:59:56.574Z,13.13
2019-05-26T01:01:31.157Z,12.80
2019-05-26T01:03:05.997Z,11.83
2019-05-26T01:04:40.195Z,15.55
2019-05-26T01:06:15.044Z,11.60
2019-05-26T01:08:05.123Z,9.38
2019-05-26T01:09:25.963Z,14.03
2019-05-26T01:11:01.440Z,9.18
2019-05-26T01:12:36.680Z,17.42
2019-05-26T01:14:11.200Z,16.17
2019-05-26T01:15:46.045Z,16.95
2019-05-26T01:17:20.253Z,14.30
2019-05-26T01:18:55.049Z,13.50
2019-05-26T01:20:29.644Z,16.77
2019-05-26T01:22:04.476Z,14.80
2019-05-26T01:23:38.721Z,10.75
2019-05-26T01:25:13.520Z,11.60
2019-05-26T01:26:48.213Z,14.18
2019-05-26T01:28:23.003Z,10.70
2019-05-26T01:29:57.264Z,10.68
2019-05-26T01:31:32.038Z,8.95
2019-05-26T01:33:06.921Z,10.95
2019-05-26T01:34:41.720Z,12.13
2019-05-26T01:36:16.469Z,9.50
2019-05-26T01:37:51.403Z,10.08
2019-05-26T01:39:25.977Z,9.78
2019-05-26T01:41:00.777Z,13.00
2019-05-26T01:42:35.020Z,12.60
2019-05-26T01:44:09.816Z,12.00
2019-05-26T01:45:44.567Z,12.73
2019-05-26T01:47:19.348Z,12.13
2019-05-26T01:48:53.602Z,11.78
2019-05-26T01:50:28.388Z,13.53
2019-05-26T01:52:02.822Z,11.50
2019-05-26T01:53:37.849Z,9.25
2019-05-26T01:55:12.076Z,32.25
2019-05-26T01:56:46.868Z,13.60
2019-05-26T01:58:21.597Z,11.35
2019-05-26T01:59:56.433Z,9.88
2019-05-26T02:01:34.159Z,14.80
2019-05-26T02:03:09.597Z,12.10
2019-05-26T02:04:44.174Z,10.58
2019-05-26T02:06:18.953Z,9.73
2019-05-26T02:07:53.160Z,13.70
2019-05-26T02:09:28.357Z,11.88
2019-05-26T02:11:03.054Z,11.68
2019-05-26T02:12:37.848Z,12.35
2019-05-26T02:14:14.477Z,12.33
2019-05-26T02:15:48.557Z,12.25
2019-05-26T02:17:23.056Z,11.50
2019-05-26T02:18:57.844Z,11.68
2019-05-26T02:20:32.184Z,15.83
2019-05-26T02:22:07.416Z,12.35
2019-05-26T02:23:41.746Z,14.30
2019-05-26T02:25:18.245Z,12.80
2019-05-26T02:26:52.515Z,12.50
2019-05-26T02:28:27.298Z,9.90
2019-05-26T02:30:01.968Z,16.65
2019-05-26T02:31:38.052Z,11.35
2019-05-26T02:33:12.283Z,9.30
2019-05-26T02:34:47.077Z,9.88
2019-05-26T02:36:21.558Z,12.55
2019-05-26T02:37:56.358Z,11.60
2019-05-26T02:39:30.614Z,11.73
2019-05-26T02:41:05.614Z,12.23
2019-05-26T02:42:40.230Z,10.88
2019-05-26T02:44:15.074Z,21.77
2019-05-26T02:45:49.296Z,14.63
2019-05-26T02:47:24.083Z,13.80
2019-05-26T02:48:58.496Z,13.88
2019-05-26T02:50:33.399Z,13.48
2019-05-26T02:52:07.700Z,13.68
2019-05-26T02:53:42.532Z,12.88
2019-05-26T02:55:18.339Z,12.15
2019-05-26T02:56:53.226Z,10.40
2019-05-26T02:58:27.618Z,10.78
2019-05-26T03:00:02.471Z,9.68
2019-05-26T03:01:37.403Z,14.33
2019-05-26T03:03:16.162Z,14.47
2019-05-26T03:04:50.372Z,10.25
2019-05-26T03:06:26.806Z,9.10
2019-05-26T03:08:03.452Z,10.18
2019-05-26T03:09:40.258Z,8.80
2019-05-26T03:11:15.438Z,9.00
2019-05-26T03:12:51.542Z,10.23
2019-05-26T03:14:28.062Z,11.65
2019-05-26T03:16:05.764Z,9.03
2019-05-26T03:17:42.161Z,14.15
2019-05-26T03:19:19.629Z,11.10
2019-05-26T03:20:57.183Z,10.50
2019-05-26T03:22:34.792Z,10.85
2019-05-26T03:24:09.002Z,12.15
2019-05-26T03:25:43.793Z,13.20
2019-05-26T03:27:18.213Z,11.10
2019-05-26T03:28:53.036Z,9.55
2019-05-26T03:30:27.362Z,9.45
2019-05-26T03:32:04.609Z,13.40
2019-05-26T03:33:39.057Z,14.53
2019-05-26T03:35:14.645Z,12.05
2019-05-26T03:36:48.894Z,12.13
2019-05-26T03:38:23.693Z,13.65
2019-05-26T03:39:58.225Z,9.20
2019-05-26T03:41:33.017Z,9.80
2019-05-26T03:43:07.241Z,9.65
2019-05-26T03:44:42.016Z,8.83
2019-05-26T03:46:18.548Z,9.93
2019-05-26T03:47:53.436Z,7.90
2019-05-26T03:49:27.677Z,9.45
2019-05-26T03:51:02.472Z,12.07
2019-05-26T03:52:37.118Z,11.73
2019-05-26T03:54:11.909Z,10.78
2019-05-26T03:55:46.167Z,15.80
2019-05-26T03:57:20.971Z,8.55
2019-05-26T03:58:55.485Z,11.35
2019-05-26T04:00:30.288Z,8.70
2019-05-26T04:02:04.637Z,12.63
2019-05-26T04:03:39.416Z,11.70
2019-05-26T04:05:14.784Z,8.10
2019-05-26T04:06:49.635Z,11.03
2019-05-26T04:08:23.850Z,12.68
2019-05-26T04:10:05.509Z,7.87
2019-05-26T04:11:35.101Z,9.58
2019-05-26T04:13:10.293Z,11.28
2019-05-26T04:14:44.502Z,8.43
2019-05-26T04:16:19.370Z,8.70
2019-05-26T04:17:53.978Z,7.12
2019-05-26T04:19:28.768Z,7.50
2019-05-26T04:21:02.994Z,7.75
2019-05-26T04:22:37.778Z,10.90
2019-05-26T04:24:12.139Z,6.70
2019-05-26T04:25:46.929Z,8.50
2019-05-26T04:27:21.153Z,6.53
2019-05-26T04:28:56.151Z,9.05
2019-05-26T04:30:30.769Z,11.12
2019-05-26T04:32:05.514Z,6.55
2019-05-26T04:33:39.754Z,8.73
2019-05-26T04:35:14.551Z,8.73
2019-05-26T04:36:48.991Z,7.28
2019-05-26T04:38:23.832Z,6.67
2019-05-26T04:39:58.048Z,6.70
2019-05-26T04:41:32.845Z,10.20
2019-05-26T04:43:07.569Z,7.45
2019-05-26T04:44:42.433Z,6.53
2019-05-26T04:46:16.635Z,7.28
2019-05-26T04:47:51.424Z,5.75
2019-05-26T04:49:26.258Z,5.95
2019-05-26T04:51:01.074Z,6.83
2019-05-26T04:52:35.302Z,6.70
2019-05-26T04:54:10.093Z,6.80
2019-05-26T04:55:44.610Z,8.58
2019-05-26T04:57:19.400Z,7.05
2019-05-26T04:58:53.646Z,7.03
2019-05-26T05:00:28.506Z,4.92
2019-05-26T05:02:02.977Z,4.90
2019-05-26T05:03:37.773Z,4.65
2019-05-26T05:05:12.175Z,5.75
2019-05-26T05:06:46.981Z,4.65
2019-05-26T05:08:21.555Z,4.78
2019-05-26T05:09:56.348Z,5.15
2019-05-26T05:11:30.598Z,4.17
2019-05-26T05:13:05.398Z,3.67
2019-05-26T05:14:39.827Z,5.10
2019-05-26T05:16:14.613Z,6.47
2019-05-26T05:17:50.324Z,4.87
2019-05-26T05:19:25.120Z,4.90
2019-05-26T05:20:59.527Z,3.85
2019-05-26T05:22:34.313Z,3.15
2019-05-26T05:24:08.678Z,6.67
2019-05-26T05:25:43.471Z,3.45
2019-05-26T05:27:18.096Z,6.50
2019-05-26T05:28:52.965Z,4.00
2019-05-26T05:30:27.218Z,7.20
2019-05-26T05:32:02.009Z,3.87
2019-05-26T05:33:36.476Z,4.55
2019-05-26T05:35:12.065Z,3.50
2019-05-26T05:36:46.314Z,4.80
2019-05-26T05:38:21.106Z,7.30
2019-05-26T05:39:55.568Z,3.27
2019-05-26T05:41:30.355Z,3.67
2019-05-26T05:43:04.621Z,4.22
2019-05-26T05:44:39.421Z,6.33
2019-05-26T05:46:14.443Z,4.50
2019-05-26T05:47:49.281Z,3.02
2019-05-26T05:49:25.080Z,4.12
2019-05-26T05:50:59.940Z,4.75
2019-05-26T05:52:34.241Z,6.37
2019-05-26T05:54:09.033Z,3.42
2019-05-26T05:55:43.237Z,4.35
2019-05-26T05:57:18.029Z,4.90
2019-05-26T05:58:52.509Z,2.65
2019-05-26T06:00:27.296Z,5.60
2019-05-26T06:02:01.607Z,2.92
2019-05-26T06:03:36.432Z,4.37
2019-05-26T06:05:12.329Z,2.90
2019-05-26T06:06:47.530Z,3.02
2019-05-26T06:08:22.741Z,4.17
2019-05-26T06:09:57.548Z,4.00
2019-05-26T06:11:31.913Z,3.95
2019-05-26T06:13:06.750Z,2.90
2019-05-26T06:14:40.972Z,2.83
2019-05-26T06:16:15.756Z,4.20
2019-05-26T06:17:50.608Z,3.15
2019-05-26T06:19:25.404Z,6.80
2019-05-26T06:20:59.616Z,5.75
2019-05-26T06:22:34.447Z,3.55
2019-05-26T06:24:08.893Z,3.37
2019-05-26T06:25:43.753Z,2.80
2019-05-26T06:27:17.966Z,4.78
2019-05-26T06:28:52.874Z,4.08
2019-05-26T06:30:28.971Z,3.67
2019-05-26T06:32:04.052Z,3.15
2019-05-26T06:33:38.466Z,3.95
2019-05-26T06:35:13.392Z,5.40
2019-05-26T06:36:47.730Z,4.85
2019-05-26T06:38:22.592Z,3.00
2019-05-26T06:39:56.852Z,5.20
2019-05-26T06:41:33.751Z,3.00
2019-05-26T06:43:07.761Z,3.08
2019-05-26T06:44:52.973Z,3.72
2019-05-26T06:46:18.412Z,2.55
2019-05-26T06:47:53.204Z,3.45
2019-05-26T06:49:27.872Z,2.90
2019-05-26T06:51:02.661Z,3.62
2019-05-26T06:52:36.875Z,3.47
2019-05-26T06:54:11.681Z,3.62
2019-05-26T06:55:46.243Z,12.80
2019-05-26T06:57:21.034Z,2.83
2019-05-26T06:58:55.285Z,2.10
2019-05-26T07:00:31.316Z,3.67
2019-05-26T07:02:06.967Z,4.28
2019-05-26T07:03:41.781Z,7.45
2019-05-26T07:05:18.442Z,3.33
2019-05-26T07:06:52.452Z,2.77
2019-05-26T07:08:26.975Z,3.58
2019-05-26T07:10:01.879Z,3.90
2019-05-26T07:11:53.917Z,2.65
2019-05-26T07:13:12.947Z,4.47
2019-05-26T07:14:49.340Z,5.83
2019-05-26T07:16:37.679Z,6.80
2019-05-26T07:18:01.486Z,3.70
2019-05-26T07:19:36.280Z,5.42
2019-05-26T07:21:10.605Z,4.85
2019-05-26T07:22:45.404Z,7.85
2019-05-26T07:24:19.662Z,3.10
2019-05-26T07:25:54.456Z,4.33
2019-05-26T07:27:28.963Z,3.83
2019-05-26T07:29:03.764Z,2.50
2019-05-26T07:30:38.008Z,3.85
2019-05-26T07:32:12.804Z,2.72
2019-05-26T07:33:47.313Z,4.42
2019-05-26T07:35:22.118Z,4.58
2019-05-26T07:36:56.360Z,4.05
2019-05-26T07:38:31.170Z,3.45
2019-05-26T07:40:06.817Z,3.92
2019-05-26T07:41:41.609Z,4.12
2019-05-26T07:43:15.853Z,2.30
2019-05-26T07:44:50.644Z,3.45
2019-05-26T07:46:25.193Z,5.03
2019-05-26T07:47:59.983Z,4.78
2019-05-26T07:49:34.229Z,3.70
2019-05-26T07:51:10.096Z,3.92
2019-05-26T07:52:44.684Z,3.70
2019-05-26T07:54:25.418Z,2.70
2019-05-26T07:55:55.330Z,2.87
2019-05-26T07:57:30.122Z,3.52
2019-05-26T07:59:04.685Z,4.50
2019-05-26T08:00:39.478Z,3.00
2019-05-26T08:02:13.706Z,4.92
2019-05-26T08:03:48.500Z,3.08
2019-05-26T08:05:22.960Z,3.17
2019-05-26T08:06:57.793Z,1.70
2019-05-26T08:08:32.396Z,3.30
2019-05-26T08:10:10.716Z,2.17
2019-05-26T08:11:45.120Z,3.05
2019-05-26T08:13:19.952Z,3.83
2019-05-26T08:14:54.161Z,3.02
2019-05-26T08:16:28.958Z,3.10
2019-05-26T08:18:03.264Z,2.65
2019-05-26T08:19:39.400Z,4.55
2019-05-26T08:21:13.612Z,5.20
2019-05-26T08:22:48.409Z,3.22
2019-05-26T08:24:23.191Z,4.95
2019-05-26T08:25:58.095Z,5.90
2019-05-26T08:27:32.506Z,6.45
2019-05-26T08:29:08.765Z,3.95
2019-05-26T08:30:43.608Z,2.37
2019-05-26T08:32:18.403Z,2.40
2019-05-26T08:33:52.613Z,3.65
2019-05-26T08:35:27.157Z,2.50
2019-05-26T08:37:01.449Z,5.20
2019-05-26T08:38:36.605Z,2.95
2019-05-26T08:40:21.049Z,2.98
2019-05-26T08:41:55.581Z,3.70
2019-05-26T08:43:29.788Z,4.47
2019-05-26T08:45:06.238Z,1.60
2019-05-26T08:46:40.477Z,3.95
2019-05-26T08:48:15.881Z,4.05
2019-05-26T08:49:50.202Z,3.37
2019-05-26T08:51:25.246Z,4.35
2019-05-26T08:52:59.460Z,2.22
2019-05-26T08:54:34.260Z,2.20
2019-05-26T08:56:08.520Z,1.77
2019-05-26T08:57:44.939Z,2.50
2019-05-26T08:59:19.200Z,1.85
2019-05-26T09:00:54.064Z,2.40
2019-05-26T09:02:28.294Z,2.65
2019-05-26T09:04:03.394Z,1.50
2019-05-26T09:05:37.600Z,4.55
2019-05-26T09:07:12.405Z,1.70
2019-05-26T09:08:46.614Z,2.62
2019-05-26T09:10:22.796Z,1.77
2019-05-26T09:11:57.033Z,1.92
2019-05-26T09:13:31.961Z,1.60
2019-05-26T09:15:08.565Z,4.15
2019-05-26T09:16:43.718Z,2.27
2019-05-26T09:18:19.501Z,3.72
2019-05-26T09:19:55.010Z,3.05
2019-05-26T09:21:29.222Z,3.05
2019-05-26T09:23:04.143Z,1.60
2019-05-26T09:24:38.380Z,2.12
2019-05-26T09:26:12.916Z,3.17
2019-05-26T09:27:47.203Z,3.55
2019-05-26T09:29:21.993Z,3.17
2019-05-26T09:30:56.240Z,2.70
2019-05-26T09:32:31.101Z,1.10
2019-05-26T09:34:05.316Z,2.25
2019-05-26T09:35:40.357Z,2.45
2019-05-26T09:37:14.657Z,2.33
2019-05-26T09:38:49.524Z,3.67
2019-05-26T09:40:23.734Z,3.47
2019-05-26T09:41:58.733Z,2.22
2019-05-26T09:43:32.935Z,3.55
2019-05-26T09:45:09.368Z,2.80
2019-05-26T09:46:43.602Z,2.10
2019-05-26T09:48:18.640Z,3.83
2019-05-26T09:49:52.847Z,3.17
2019-05-26T09:51:27.389Z,1.32
2019-05-26T09:53:01.602Z,4.35
2019-05-26T09:54:36.912Z,1.75
2019-05-26T09:56:11.118Z,2.25
2019-05-26T09:57:45.940Z,1.40
2019-05-26T09:59:20.148Z,2.45
2019-05-26T10:00:55.181Z,1.98
2019-05-26T10:02:30.180Z,2.35
2019-05-26T10:04:05.021Z,1.57
2019-05-26T10:05:39.489Z,2.08
2019-05-26T10:07:15.991Z,2.17
2019-05-26T10:08:50.480Z,2.35
2019-05-26T10:10:25.052Z,2.25
2019-05-26T10:11:59.325Z,3.25
2019-05-26T10:13:35.237Z,1.15
2019-05-26T10:15:10.558Z,2.37
2019-05-26T10:16:45.350Z,1.27
2019-05-26T10:18:19.561Z,1.47
2019-05-26T10:19:54.786Z,4.20
2019-05-26T10:21:29.068Z,1.70
2019-05-26T10:23:03.867Z,3.00
2019-05-26T10:24:38.077Z,1.37
2019-05-26T10:26:13.372Z,2.58
2019-05-26T10:27:47.580Z,1.35
2019-05-26T10:29:22.477Z,1.60
2019-05-26T10:30:56.674Z,1.32
2019-05-26T10:32:31.942Z,1.02
2019-05-26T10:34:06.196Z,2.27
2019-05-26T10:35:40.993Z,3.42
2019-05-26T10:37:15.203Z,2.17
2019-05-26T10:38:50.622Z,1.80
2019-05-26T10:40:26.380Z,1.75
2019-05-26T10:42:01.207Z,2.40
2019-05-26T10:43:46.911Z,2.77
2019-05-26T10:45:13.905Z,1.10
2019-05-26T10:46:48.108Z,2.87
2019-05-26T10:48:22.901Z,1.52
2019-05-26T10:49:57.148Z,1.10
2019-05-26T10:51:32.833Z,2.15
2019-05-26T10:53:07.120Z,2.60
2019-05-26T10:54:41.896Z,1.95
2019-05-26T10:56:16.130Z,2.02
2019-05-26T10:57:51.465Z,1.27
2019-05-26T10:59:25.692Z,2.77
2019-05-26T11:01:00.490Z,1.15
2019-05-26T11:02:34.706Z,1.80
2019-05-26T11:04:10.803Z,1.62
2019-05-26T11:05:45.034Z,2.02
2019-05-26T11:07:19.924Z,1.35
2019-05-26T11:08:56.945Z,0.88
2019-05-26T11:10:32.060Z,1.45
2019-05-26T11:12:06.304Z,1.12
2019-05-26T11:13:41.092Z,1.87
2019-05-26T11:15:15.704Z,1.75
2019-05-26T11:16:50.973Z,2.50
2019-05-26T11:18:25.452Z,2.77
2019-05-26T11:20:00.237Z,2.47
2019-05-26T11:21:34.516Z,2.70
2019-05-26T11:23:09.649Z,2.10
2019-05-26T11:24:43.872Z,1.50
2019-05-26T11:26:19.041Z,2.95
2019-05-26T11:27:53.358Z,1.82
2019-05-26T11:29:28.610Z,1.40
2019-05-26T11:31:02.893Z,1.15
2019-05-26T11:32:37.685Z,2.12
2019-05-26T11:34:11.880Z,1.00
2019-05-26T11:35:47.210Z,1.42
2019-05-26T11:37:21.484Z,2.45
2019-05-26T11:38:56.272Z,1.37
2019-05-26T11:40:30.489Z,2.00
2019-05-26T11:42:13.351Z,1.20
2019-05-26T11:43:43.110Z,1.45
2019-05-26T11:45:18.804Z,2.22
2019-05-26T11:46:53.130Z,3.87
2019-05-26T11:48:28.312Z,1.80
2019-05-26T11:50:02.517Z,1.90
2019-05-26T11:51:37.309Z,1.10
2019-05-26T11:53:11.550Z,2.62
2019-05-26T11:54:46.725Z,2.33
2019-05-26T11:56:22.929Z,2.33
2019-05-26T11:57:57.757Z,3.00
2019-05-26T11:59:31.965Z,1.60
2019-05-26T12:01:06.942Z,1.80
2019-05-26T12:02:41.205Z,3.62
2019-05-26T12:04:16.010Z,3.33
2019-05-26T12:05:50.287Z,2.50
2019-05-26T12:07:25.315Z,2.58
2019-05-26T12:08:59.585Z,1.60
2019-05-26T12:10:34.992Z,1.60
2019-05-26T12:12:10.324Z,1.65
2019-05-26T12:13:46.805Z,2.65
2019-05-26T12:15:21.192Z,1.25
2019-05-26T12:16:57.457Z,2.45
2019-05-26T12:18:31.736Z,1.75
2019-05-26T12:20:08.512Z,0.90
2019-05-26T12:21:42.724Z,2.47
2019-05-26T12:23:17.518Z,1.60
2019-05-26T12:24:51.760Z,1.70
2019-05-26T12:26:27.797Z,3.37
2019-05-26T12:28:02.084Z,2.27
2019-05-26T12:29:36.904Z,1.75
2019-05-26T12:31:11.148Z,1.87
2019-05-26T12:32:46.090Z,1.30
2019-05-26T12:34:20.294Z,3.40
2019-05-26T12:35:55.367Z,1.17
2019-05-26T12:37:29.632Z,2.62
2019-05-26T12:39:06.490Z,1.52
2019-05-26T12:40:40.889Z,1.00
2019-05-26T12:42:17.118Z,1.67
2019-05-26T12:43:51.633Z,1.92
2019-05-26T12:45:26.593Z,1.85
2019-05-26T12:47:00.805Z,1.07
2019-05-26T12:48:35.739Z,2.15
2019-05-26T12:50:11.135Z,1.47
2019-05-26T12:51:46.499Z,3.33
2019-05-26T12:53:20.772Z,1.45
2019-05-26T12:54:55.572Z,1.05
2019-05-26T12:56:31.461Z,2.87
2019-05-26T12:58:06.652Z,3.17
2019-05-26T12:59:42.518Z,2.00
2019-05-26T13:01:17.309Z,2.40
2019-05-26T13:02:51.591Z,1.67
2019-05-26T13:04:26.567Z,1.45
2019-05-26T13:06:02.266Z,1.10
2019-05-26T13:07:37.508Z,3.08
2019-05-26T13:09:12.721Z,1.17
2019-05-26T13:10:47.758Z,2.20
2019-05-26T13:12:22.131Z,2.22
2019-05-26T13:13:56.985Z,1.70
2019-05-26T13:15:31.200Z,2.37
2019-05-26T13:17:06.101Z,1.70
2019-05-26T13:18:40.344Z,1.20
2019-05-26T13:20:16.508Z,2.35
2019-05-26T13:21:50.757Z,1.67
2019-05-26T13:23:25.645Z,0.95
2019-05-26T13:24:59.840Z,0.98
2019-05-26T13:26:34.636Z,5.25
2019-05-26T13:28:10.065Z,1.75
2019-05-26T13:29:45.133Z,1.55
2019-05-26T13:31:19.428Z,4.65
2019-05-26T13:32:54.214Z,1.17
2019-05-26T13:34:28.511Z,2.98
2019-05-26T13:36:03.497Z,2.80
2019-05-26T13:37:37.716Z,1.72
2019-05-26T13:39:12.500Z,1.00
2019-05-26T13:40:46.717Z,2.17
2019-05-26T13:42:21.965Z,3.85
2019-05-26T13:43:56.575Z,3.77
2019-05-26T13:45:33.842Z,5.75
2019-05-26T13:47:07.225Z,1.87
2019-05-26T13:48:41.912Z,2.47
2019-05-26T13:50:16.925Z,3.85
2019-05-26T13:51:51.726Z,2.85
2019-05-26T13:53:30.147Z,2.42
2019-05-26T13:55:02.797Z,1.62
2019-05-26T13:56:37.064Z,2.35
2019-05-26T13:58:11.890Z,0.90
2019-05-26T13:59:46.383Z,0.78
2019-05-26T14:01:21.373Z,1.17
2019-05-26T14:02:57.092Z,2.90
2019-05-26T14:04:32.026Z,1.00
2019-05-26T14:06:06.271Z,1.60
2019-05-26T14:07:41.388Z,1.50
2019-05-26T14:09:15.589Z,1.37
2019-05-26T14:10:50.437Z,2.52
2019-05-26T14:12:24.632Z,2.47
2019-05-26T14:13:59.854Z,4.85
2019-05-26T14:15:38.737Z,2.90
2019-05-26T14:17:11.026Z,1.42
2019-05-26T14:18:45.652Z,1.42
2019-05-26T14:20:23.764Z,1.75
2019-05-26T14:21:57.964Z,1.52
2019-05-26T14:23:32.834Z,1.25
2019-05-26T14:25:08.136Z,4.92
2019-05-26T14:26:43.250Z,3.05
2019-05-26T14:28:17.809Z,2.50
2019-05-26T14:29:52.641Z,4.60
2019-05-26T14:31:27.356Z,2.62
2019-05-26T14:33:02.373Z,2.22
2019-05-26T14:34:36.650Z,4.28
2019-05-26T14:36:11.483Z,1.77
2019-05-26T14:37:45.684Z,1.98
2019-05-26T14:39:21.645Z,1.75
2019-05-26T14:40:55.892Z,2.83
2019-05-26T14:42:30.733Z,1.10
2019-05-26T14:44:05.041Z,1.75
2019-05-26T14:45:52.829Z,1.20
2019-05-26T14:47:16.672Z,1.30
2019-05-26T14:48:51.517Z,1.10
2019-05-26T14:50:25.755Z,1.55
2019-05-26T14:52:00.872Z,2.52
2019-05-26T14:53:35.060Z,5.67
2019-05-26T14:55:11.790Z,4.17
2019-05-26T14:56:46.008Z,1.25
2019-05-26T14:58:21.143Z,2.55
2019-05-26T14:59:56.990Z,5.95
2019-05-26T15:01:31.787Z,1.60
2019-05-26T15:03:05.998Z,2.83
2019-05-26T15:04:41.257Z,2.75
2019-05-26T15:06:16.491Z,4.55
2019-05-26T15:07:51.284Z,4.08
2019-05-26T15:09:25.661Z,1.65
2019-05-26T15:11:00.930Z,2.92
2019-05-26T15:12:35.137Z,1.40
2019-05-26T15:14:09.925Z,3.92
2019-05-26T15:15:44.265Z,1.55
2019-05-26T15:17:20.774Z,5.58
2019-05-26T15:18:55.021Z,3.67
2019-05-26T15:20:29.891Z,2.77
2019-05-26T15:22:04.108Z,3.17
2019-05-26T15:23:39.236Z,1.80
2019-05-26T15:25:15.762Z,2.05
2019-05-26T15:26:50.623Z,2.00
2019-05-26T15:28:24.829Z,3.10
2019-05-26T15:29:59.961Z,1.60
2019-05-26T15:31:34.169Z,1.65
2019-05-26T15:33:09.573Z,1.98
2019-05-26T15:34:44.548Z,4.28
2019-05-26T15:36:19.662Z,2.08
2019-05-26T15:37:53.873Z,1.25
2019-05-26T15:39:28.706Z,2.72
2019-05-26T15:41:03.654Z,3.42
2019-05-26T15:42:38.955Z,1.67
2019-05-26T15:44:13.149Z,2.45
2019-05-26T15:45:49.674Z,2.20
2019-05-26T15:47:24.116Z,2.27
2019-05-26T15:48:59.272Z,4.20
2019-05-26T15:50:33.641Z,1.82
2019-05-26T15:52:08.429Z,4.87
2019-05-26T15:53:42.720Z,3.72
2019-05-26T15:55:18.163Z,2.50
2019-05-26T15:56:52.401Z,2.17
2019-05-26T15:58:27.273Z,1.52
2019-05-26T16:00:01.481Z,1.87
2019-05-26T16:01:36.394Z,2.17
2019-05-26T16:03:10.653Z,2.65
2019-05-26T16:04:45.730Z,1.82
2019-05-26T16:06:20.184Z,2.77
2019-05-26T16:07:55.396Z,1.60
2019-05-26T16:09:29.644Z,3.05
2019-05-26T16:11:04.440Z,2.92
2019-05-26T16:12:38.854Z,2.95
2019-05-26T16:14:13.980Z,4.08
2019-05-26T16:15:48.189Z,2.85
2019-05-26T16:17:23.025Z,2.52
2019-05-26T16:18:57.245Z,3.15
2019-05-26T16:20:32.551Z,2.58
2019-05-26T16:22:06.762Z,2.65
2019-05-26T16:23:41.631Z,2.25
2019-05-26T16:25:15.945Z,2.02
2019-05-26T16:26:51.026Z,2.27
2019-05-26T16:28:25.279Z,2.08
2019-05-26T16:30:00.049Z,2.67
2019-05-26T16:31:34.281Z,2.55
2019-05-26T16:33:10.009Z,1.87
2019-05-26T16:34:44.216Z,1.60
2019-05-26T16:36:21.270Z,2.80
2019-05-26T16:37:54.872Z,1.77
2019-05-26T16:39:36.880Z,2.95
2019-05-26T16:41:06.819Z,3.62
2019-05-26T16:42:41.944Z,1.77
2019-05-26T16:44:16.172Z,1.92
2019-05-26T16:45:56.070Z,2.62
2019-05-26T16:47:27.376Z,3.33
2019-05-26T16:49:02.369Z,2.35
2019-05-26T16:50:36.580Z,2.98
2019-05-26T16:52:11.769Z,2.85
2019-05-26T16:53:46.041Z,3.37
2019-05-26T16:55:20.928Z,2.25
2019-05-26T16:56:55.161Z,1.80
2019-05-26T16:58:30.254Z,1.80
2019-05-26T17:00:06.712Z,3.55
2019-05-26T17:01:42.578Z,2.60
2019-05-26T17:03:16.786Z,2.62
2019-05-26T17:04:52.136Z,2.17
2019-05-26T17:06:26.440Z,2.12
2019-05-26T17:08:01.329Z,3.17
2019-05-26T17:09:35.516Z,2.12
2019-05-26T17:11:10.590Z,4.92
2019-05-26T17:12:44.861Z,4.17
2019-05-26T17:14:19.694Z,5.67
2019-05-26T17:15:53.899Z,4.22
2019-05-26T17:17:28.880Z,7.33
2019-05-26T17:19:03.109Z,5.35
2019-05-26T17:20:38.116Z,3.90
2019-05-26T17:22:12.325Z,6.15
2019-05-26T17:23:47.417Z,2.95
2019-05-26T17:25:21.708Z,2.95
2019-05-26T17:26:56.575Z,4.70
2019-05-26T17:28:30.836Z,4.90
2019-05-26T17:30:07.893Z,5.45
2019-05-26T17:31:42.112Z,7.90
2019-05-26T17:33:16.909Z,5.10
2019-05-26T17:34:51.152Z,6.97
2019-05-26T17:36:26.326Z,6.55
2019-05-26T17:38:00.613Z,6.15
2019-05-26T17:39:35.501Z,4.28
2019-05-26T17:41:11.207Z,3.65
2019-05-26T17:42:46.417Z,4.58
2019-05-26T17:44:20.629Z,4.83
2019-05-26T17:45:55.429Z,5.08
2019-05-26T17:47:30.907Z,5.33
2019-05-26T17:49:06.345Z,3.40
2019-05-26T17:50:41.149Z,4.62
2019-05-26T17:52:15.724Z,6.37
2019-05-26T17:53:49.959Z,4.05
2019-05-26T17:55:24.999Z,2.42
2019-05-26T17:56:59.223Z,2.58
2019-05-26T17:58:34.052Z,3.45
2019-05-26T18:00:12.168Z,5.60
2019-05-26T18:01:47.148Z,4.47
2019-05-26T18:03:22.348Z,4.33
2019-05-26T18:04:57.165Z,4.33
2019-05-26T18:06:31.399Z,2.77
2019-05-26T18:08:06.347Z,4.20
2019-05-26T18:09:44.660Z,3.20
2019-05-26T18:11:17.141Z,2.27
2019-05-26T18:12:51.465Z,2.55
2019-05-26T18:14:27.278Z,2.33
2019-05-26T18:16:01.561Z,3.27
2019-05-26T18:17:46.424Z,2.20
2019-05-26T18:19:12.285Z,7.92
2019-05-26T18:20:47.297Z,6.33
2019-05-26T18:22:21.765Z,9.23
2019-05-26T18:23:56.700Z,4.65
2019-05-26T18:25:30.950Z,4.53
2019-05-26T18:27:12.591Z,3.10
2019-05-26T18:28:46.813Z,4.90
2019-05-26T18:30:22.130Z,3.65
2019-05-26T18:31:56.537Z,2.77
2019-05-26T18:33:31.357Z,4.17
2019-05-26T18:35:06.976Z,3.47
2019-05-26T18:36:42.661Z,7.65
2019-05-26T18:38:17.038Z,6.33
2019-05-26T18:39:52.159Z,7.87
2019-05-26T18:41:27.848Z,9.13
2019-05-26T18:43:04.888Z,8.70
2019-05-26T18:44:39.105Z,7.87
2019-05-26T18:46:14.173Z,5.35
2019-05-26T18:48:02.442Z,6.33
2019-05-26T18:49:26.449Z,6.85
2019-05-26T18:51:02.185Z,5.00
2019-05-26T18:52:37.223Z,12.95
2019-05-26T18:54:12.161Z,46.58
2019-05-26T18:55:46.988Z,240.30
2019-05-26T18:57:21.413Z,132.80
2019-05-26T18:58:56.761Z,79.92
2019-05-26T19:00:33.616Z,16.10
2019-05-26T19:02:08.914Z,20.77
2019-05-26T19:03:48.259Z,9.90
2019-05-26T19:05:32.884Z,12.68
2019-05-26T19:06:59.184Z,10.30
2019-05-26T19:08:35.100Z,11.97
2019-05-26T19:10:10.983Z,12.33
2019-05-26T19:11:47.521Z,9.05
2019-05-26T19:13:23.000Z,10.13
2019-05-26T19:14:57.868Z,9.25
2019-05-26T19:16:32.162Z,6.15
2019-05-26T19:18:19.476Z,6.90
2019-05-26T19:19:43.088Z,7.70
2019-05-26T19:21:17.963Z,8.18
2019-05-26T19:22:53.409Z,9.53
2019-05-26T19:24:28.869Z,7.08
2019-05-26T19:26:03.121Z,8.05
2019-05-26T19:27:39.998Z,4.92
2019-05-26T19:29:14.346Z,7.30
2019-05-26T19:30:50.786Z,10.05
2019-05-26T19:32:25.067Z,5.87
2019-05-26T19:33:59.862Z,6.92
2019-05-26T19:35:34.453Z,8.95
2019-05-26T19:37:09.509Z,7.15
2019-05-26T19:38:43.860Z,6.97
2019-05-26T19:40:19.207Z,6.95
2019-05-26T19:41:53.441Z,7.12
2019-05-26T19:43:28.590Z,7.47
2019-05-26T19:45:02.866Z,6.72
2019-05-26T19:46:37.644Z,8.18
2019-05-26T19:48:11.920Z,6.58
2019-05-26T19:49:46.879Z,7.45
2019-05-26T19:51:21.118Z,6.55
2019-05-26T19:52:55.981Z,4.97
2019-05-26T19:54:30.183Z,6.67
2019-05-26T19:56:05.234Z,5.33
2019-05-26T19:57:39.542Z,9.43
2019-05-26T19:59:15.799Z,7.05
2019-05-26T20:00:50.073Z,7.30
2019-05-26T20:02:25.256Z,7.47
2019-05-26T20:03:59.544Z,6.60
2019-05-26T20:05:34.340Z,6.40
2019-05-26T20:07:08.653Z,6.70
2019-05-26T20:08:46.193Z,7.20
2019-05-26T20:10:20.587Z,7.15
2019-05-26T20:11:56.848Z,11.90
2019-05-26T20:13:32.239Z,8.80
2019-05-26T20:15:09.975Z,7.90
2019-05-26T20:16:44.331Z,8.45
2019-05-26T20:18:19.188Z,10.68
2019-05-26T20:19:53.497Z,7.00
2019-05-26T20:21:29.313Z,8.93
2019-05-26T20:23:05.472Z,8.98
2019-05-26T20:24:40.626Z,9.35
2019-05-26T20:26:14.832Z,9.50
2019-05-26T20:27:49.894Z,7.22
2019-05-26T20:29:24.183Z,10.65
2019-05-26T20:30:58.968Z,5.83
2019-05-26T20:32:33.177Z,7.85
2019-05-26T20:34:08.252Z,10.48
2019-05-26T20:35:42.463Z,7.78
2019-05-26T20:37:17.268Z,5.25
2019-05-26T20:38:51.499Z,7.60
2019-05-26T20:40:26.951Z,5.45
2019-05-26T20:42:01.153Z,10.93
2019-05-26T20:43:35.944Z,9.05
2019-05-26T20:45:10.860Z,10.03
2019-05-26T20:46:45.933Z,9.08
2019-05-26T20:48:21.616Z,8.73
2019-05-26T20:49:56.477Z,6.58
2019-05-26T20:51:30.692Z,6.80
2019-05-26T20:53:05.826Z,6.55
2019-05-26T20:54:40.038Z,6.65